createdAt,value
2017-10-19T00:00:31.096Z,99.90
2017-10-19T00:03:00.409Z,99.90
2017-10-19T00:05:29.890Z,99.90
2017-10-19T00:07:59.260Z,99.90
2017-10-19T00:10:28.472Z,99.90
2017-10-19T00:12:57.885Z,99.90
2017-10-19T00:15:27.097Z,99.90
2017-10-19T00:17:56.391Z,99.90
2017-10-19T00:20:25.640Z,99.90
2017-10-19T00:22:55.143Z,99.90
2017-10-19T00:25:25.257Z,99.90
2017-10-19T00:27:54.490Z,99.90
2017-10-19T00:30:23.751Z,99.90
2017-10-19T00:32:53.176Z,99.90
2017-10-19T00:35:23.214Z,99.90
2017-10-19T00:37:52.710Z,99.90
2017-10-19T00:40:21.969Z,99.90
2017-10-19T00:42:51.226Z,99.90
2017-10-19T00:45:20.498Z,99.90
2017-10-19T00:47:49.801Z,99.90
2017-10-19T00:50:19.207Z,99.90
2017-10-19T00:52:48.529Z,99.90
2017-10-19T00:55:17.755Z,99.90
2017-10-19T00:57:47.270Z,99.90
2017-10-19T01:00:16.536Z,99.90
2017-10-19T01:02:45.793Z,99.90
2017-10-19T01:05:15.072Z,99.90
2017-10-19T01:07:44.442Z,99.90
2017-10-19T01:10:13.737Z,99.90
2017-10-19T01:12:43.784Z,99.90
2017-10-19T01:15:13.050Z,99.90
2017-10-19T01:17:42.342Z,99.90
2017-10-19T01:20:11.754Z,99.90
2017-10-19T01:22:41.770Z,99.90
2017-10-19T01:25:11.174Z,99.90
2017-10-19T01:27:41.185Z,99.90
2017-10-19T01:30:10.588Z,99.90
2017-10-19T01:32:39.874Z,99.90
2017-10-19T01:35:09.912Z,99.90
2017-10-19T01:37:39.194Z,99.90
2017-10-19T01:40:08.461Z,99.90
2017-10-19T01:42:37.731Z,99.90
2017-10-19T01:45:07.870Z,99.90
2017-10-19T01:47:37.129Z,99.90
2017-10-19T01:50:07.169Z,99.90
2017-10-19T01:52:36.442Z,99.90
2017-10-19T01:55:06.496Z,99.90
2017-10-19T01:57:35.765Z,99.90
2017-10-19T02:00:05.086Z,99.90
2017-10-19T02:02:35.123Z,99.90
2017-10-19T02:05:04.386Z,99.90
2017-10-19T02:07:34.388Z,99.90
2017-10-19T02:10:03.662Z,99.90
2017-10-19T02:12:32.927Z,99.90
2017-10-19T02:15:02.164Z,99.90
2017-10-19T02:17:31.427Z,99.90
2017-10-19T02:20:01.449Z,99.90
2017-10-19T02:22:30.764Z,99.90
2017-10-19T02:25:00.057Z,99.90
2017-10-19T02:27:29.293Z,99.90
2017-10-19T02:29:58.741Z,99.90
2017-10-19T02:32:28.017Z,99.90
2017-10-19T02:34:57.269Z,99.90
2017-10-19T02:37:26.583Z,99.90
2017-10-19T02:39:55.930Z,99.90
2017-10-19T02:42:25.186Z,99.90
2017-10-19T02:44:54.571Z,99.90
2017-10-19T02:47:23.938Z,99.90
2017-10-19T02:49:53.199Z,99.90
2017-10-19T02:52:22.494Z,99.90
2017-10-19T02:54:51.775Z,99.90
2017-10-19T02:57:21.177Z,99.90
2017-10-19T02:59:50.479Z,99.90
2017-10-19T03:02:19.754Z,99.90
2017-10-19T03:04:49.020Z,99.90
2017-10-19T03:07:18.299Z,99.90
2017-10-19T03:09:47.565Z,99.90
2017-10-19T03:12:17.047Z,99.90
2017-10-19T03:14:46.328Z,99.90
2017-10-19T03:17:15.574Z,99.90
2017-10-19T03:19:44.864Z,99.90
2017-10-19T03:22:14.122Z,99.90
2017-10-19T03:24:43.566Z,99.90
2017-10-19T03:27:12.837Z,99.90
2017-10-19T03:29:42.079Z,99.90
2017-10-19T03:32:11.478Z,99.90
2017-10-19T03:34:40.724Z,99.90
2017-10-19T03:37:09.963Z,99.90
2017-10-19T03:39:39.220Z,99.90
2017-10-19T03:42:08.694Z,99.90
2017-10-19T03:44:38.739Z,99.90
2017-10-19T03:47:07.990Z,99.90
2017-10-19T03:49:37.282Z,99.90
2017-10-19T03:52:06.614Z,99.90
2017-10-19T03:54:35.870Z,99.90
2017-10-19T03:57:05.094Z,99.90
2017-10-19T03:59:35.202Z,99.90
2017-10-19T04:02:04.634Z,99.90
2017-10-19T04:04:33.878Z,99.90
2017-10-19T04:07:03.155Z,99.90
2017-10-19T04:09:33.166Z,99.90
2017-10-19T04:12:02.438Z,99.90
2017-10-19T04:14:31.674Z,99.90
2017-10-19T04:17:00.963Z,99.90
2017-10-19T04:19:30.245Z,99.90
2017-10-19T04:21:59.550Z,99.90
2017-10-19T04:24:28.793Z,99.90
2017-10-19T04:26:58.138Z,99.90
2017-10-19T04:29:27.398Z,99.90
2017-10-19T04:31:56.662Z,99.90
2017-10-19T04:34:26.067Z,99.90
2017-10-19T04:36:56.106Z,99.90
2017-10-19T04:39:25.504Z,99.90
2017-10-19T04:41:54.758Z,99.90
2017-10-19T04:44:24.119Z,99.90
2017-10-19T04:46:53.420Z,99.90
2017-10-19T04:49:22.650Z,99.90
2017-10-19T04:51:51.925Z,99.90
2017-10-19T04:54:21.164Z,99.90
2017-10-19T04:56:50.414Z,99.90
2017-10-19T04:59:19.677Z,99.90
2017-10-19T05:01:48.938Z,99.90
2017-10-19T05:04:18.175Z,99.90
2017-10-19T05:06:47.595Z,99.90
2017-10-19T05:09:17.634Z,99.90
2017-10-19T05:11:46.891Z,99.90
2017-10-19T05:14:16.152Z,99.90
2017-10-19T05:16:45.414Z,99.90
2017-10-19T05:19:15.536Z,99.90
2017-10-19T05:21:45.654Z,99.90
2017-10-19T05:24:14.922Z,99.90
2017-10-19T05:26:44.175Z,99.90
2017-10-19T05:29:13.559Z,99.90
2017-10-19T05:31:42.793Z,99.90
2017-10-19T05:34:12.171Z,99.90
2017-10-19T05:36:42.312Z,99.90
2017-10-19T05:39:11.527Z,99.90
2017-10-19T05:41:40.770Z,99.90
2017-10-19T05:44:11.547Z,99.90
2017-10-19T05:46:40.809Z,99.90
2017-10-19T05:49:10.058Z,99.90
2017-10-19T05:51:39.325Z,99.90
2017-10-19T05:54:09.471Z,99.90
2017-10-19T05:56:38.737Z,99.90
2017-10-19T05:59:07.998Z,99.90
2017-10-19T06:01:37.266Z,99.90
2017-10-19T06:04:06.582Z,99.90
2017-10-19T06:06:35.783Z,99.90
2017-10-19T06:09:05.285Z,99.90
2017-10-19T06:11:34.755Z,99.90
2017-10-19T06:14:04.022Z,99.90
2017-10-19T06:16:33.364Z,99.90
2017-10-19T06:19:03.390Z,99.90
2017-10-19T06:21:32.788Z,99.90
2017-10-19T06:24:02.843Z,99.90
2017-10-19T06:26:32.125Z,99.90
2017-10-19T06:29:01.389Z,99.90
2017-10-19T06:31:30.664Z,99.90
2017-10-19T06:33:59.930Z,99.90
2017-10-19T06:36:29.189Z,99.90
2017-10-19T06:38:58.453Z,99.90
2017-10-19T06:41:27.742Z,99.90
2017-10-19T06:43:57.007Z,99.90
2017-10-19T06:46:26.258Z,99.90
2017-10-19T06:48:55.705Z,99.90
2017-10-19T06:51:25.739Z,99.90
2017-10-19T06:53:55.286Z,99.90
2017-10-19T06:56:24.559Z,99.90
2017-10-19T06:58:53.817Z,99.90
2017-10-19T07:01:23.679Z,99.90
2017-10-19T07:03:52.949Z,99.90
2017-10-19T07:06:22.966Z,99.90
2017-10-19T07:08:53.189Z,99.90
2017-10-19T07:11:22.793Z,99.90
2017-10-19T07:13:52.279Z,99.90
2017-10-19T07:16:21.597Z,99.90
2017-10-19T07:18:51.027Z,99.90
2017-10-19T07:21:21.038Z,99.90
2017-10-19T07:23:50.314Z,99.70
2017-10-19T07:26:19.747Z,96.80
2017-10-19T07:28:49.148Z,93.90
2017-10-19T07:31:18.514Z,92.50
2017-10-19T07:33:47.810Z,90.50
2017-10-19T07:36:17.066Z,90.50
2017-10-19T07:38:46.345Z,89.50
2017-10-19T07:41:15.750Z,88.90
2017-10-19T07:43:45.014Z,88.80
2017-10-19T07:46:14.290Z,90.00
2017-10-19T07:48:43.537Z,89.20
2017-10-19T07:51:12.964Z,88.20
2017-10-19T07:53:42.991Z,86.60
2017-10-19T07:56:12.254Z,86.60
2017-10-19T07:58:41.513Z,77.70
2017-10-19T08:01:10.810Z,70.10
2017-10-19T08:03:40.083Z,63.10
2017-10-19T08:06:10.190Z,53.10
2017-10-19T08:08:39.466Z,53.30
2017-10-19T08:11:08.721Z,51.30
2017-10-19T08:13:38.111Z,48.10
2017-10-19T08:16:08.142Z,44.50
2017-10-19T08:18:37.382Z,44.40
2017-10-19T08:21:06.639Z,44.50
2017-10-19T08:23:35.902Z,43.70
2017-10-19T08:26:05.166Z,43.20
2017-10-19T08:28:34.412Z,41.00
2017-10-19T08:31:03.830Z,37.60
2017-10-19T08:33:34.458Z,35.80
2017-10-19T08:36:03.862Z,35.70
2017-10-19T08:38:33.978Z,36.40
2017-10-19T08:41:04.026Z,35.90
2017-10-19T08:43:33.377Z,35.80
2017-10-19T08:46:02.630Z,33.60
2017-10-19T08:48:32.002Z,34.20
2017-10-19T08:51:01.291Z,34.40
2017-10-19T08:53:30.809Z,34.80
2017-10-19T08:56:00.897Z,32.60
2017-10-19T08:58:30.898Z,33.00
2017-10-19T09:01:00.173Z,35.30
2017-10-19T09:03:30.199Z,33.40
2017-10-19T09:05:59.583Z,33.40
2017-10-19T09:08:29.690Z,32.70
2017-10-19T09:10:59.712Z,32.60
2017-10-19T09:13:29.934Z,31.60
2017-10-19T09:16:00.066Z,32.80
2017-10-19T09:18:29.466Z,32.70
2017-10-19T09:20:58.898Z,32.90
2017-10-19T09:23:28.198Z,31.40
2017-10-19T09:25:57.518Z,31.90
2017-10-19T09:28:26.778Z,31.40
2017-10-19T09:30:56.820Z,31.30
2017-10-19T09:33:26.201Z,31.30
2017-10-19T09:35:56.220Z,30.70
2017-10-19T09:38:25.510Z,31.20
2017-10-19T09:40:54.790Z,31.50
2017-10-19T09:43:24.210Z,30.20
2017-10-19T09:45:53.466Z,29.80
2017-10-19T09:48:22.869Z,30.60
2017-10-19T09:50:52.150Z,30.10
2017-10-19T09:53:21.428Z,30.40
2017-10-19T09:55:51.534Z,30.20
2017-10-19T09:58:20.785Z,30.20
2017-10-19T10:00:50.070Z,31.80
2017-10-19T10:03:19.319Z,35.40
2017-10-19T10:05:48.778Z,33.80
2017-10-19T10:08:18.230Z,32.40
2017-10-19T10:10:47.490Z,32.30
2017-10-19T10:13:16.775Z,31.00
2017-10-19T10:15:46.018Z,31.30
2017-10-19T10:18:15.286Z,30.40
2017-10-19T10:20:44.553Z,30.50
2017-10-19T10:23:14.596Z,30.20
2017-10-19T10:25:43.879Z,30.10
2017-10-19T10:28:14.028Z,30.30
2017-10-19T10:30:43.284Z,30.60
2017-10-19T10:33:12.547Z,30.20
2017-10-19T10:35:41.823Z,30.30
2017-10-19T10:38:11.079Z,31.60
2017-10-19T10:40:40.349Z,31.20
2017-10-19T10:43:09.627Z,31.90
2017-10-19T10:45:38.898Z,32.40
2017-10-19T10:48:08.221Z,32.40
2017-10-19T10:50:37.498Z,32.60
2017-10-19T10:53:07.539Z,33.90
2017-10-19T10:55:43.542Z,33.80
2017-10-19T10:58:12.827Z,33.20
2017-10-19T11:00:42.086Z,32.50
2017-10-19T11:03:11.346Z,33.20
2017-10-19T11:05:40.623Z,32.80
2017-10-19T11:08:09.918Z,32.90
2017-10-19T11:10:39.165Z,32.80
2017-10-19T11:13:08.817Z,32.20
2017-10-19T11:15:38.066Z,33.90
2017-10-19T11:18:07.402Z,34.40
2017-10-19T11:20:36.654Z,34.70
2017-10-19T11:23:06.806Z,35.30
2017-10-19T11:25:36.057Z,35.10
2017-10-19T11:28:05.311Z,36.50
2017-10-19T11:30:35.361Z,39.40
2017-10-19T11:33:04.630Z,39.40
2017-10-19T11:35:33.994Z,43.10
2017-10-19T11:38:03.339Z,46.30
2017-10-19T11:40:33.390Z,48.60
2017-10-19T11:43:02.653Z,49.10
2017-10-19T11:45:31.944Z,50.20
2017-10-19T11:48:01.214Z,51.70
2017-10-19T11:50:30.469Z,51.70
2017-10-19T11:52:59.778Z,51.80
2017-10-19T11:55:29.838Z,55.40
2017-10-19T11:57:59.079Z,55.20
2017-10-19T12:00:28.482Z,53.60
2017-10-19T12:02:58.517Z,51.00
2017-10-19T12:05:27.951Z,50.90
2017-10-19T12:07:57.283Z,48.30
2017-10-19T12:10:26.752Z,47.10
2017-10-19T12:12:56.756Z,45.80
2017-10-19T12:15:26.886Z,45.40
2017-10-19T12:17:56.913Z,46.80
2017-10-19T12:20:26.393Z,46.80
2017-10-19T12:22:55.795Z,47.20
2017-10-19T12:25:25.204Z,50.10
2017-10-19T12:27:55.222Z,48.50
2017-10-19T12:30:25.269Z,49.20
2017-10-19T12:32:54.519Z,49.10
2017-10-19T12:35:23.933Z,49.70
2017-10-19T12:37:53.187Z,51.00
2017-10-19T12:40:22.451Z,52.50
2017-10-19T12:42:52.496Z,54.10
2017-10-19T12:45:21.758Z,54.10
2017-10-19T12:47:51.044Z,55.60
2017-10-19T12:50:21.121Z,56.20
2017-10-19T12:52:50.412Z,56.20
2017-10-19T12:55:19.696Z,56.60
2017-10-19T12:57:49.101Z,58.10
2017-10-19T13:00:18.369Z,60.10
2017-10-19T13:02:47.803Z,59.20
2017-10-19T13:05:17.339Z,60.20
2017-10-19T13:07:46.641Z,62.60
2017-10-19T13:10:15.902Z,62.10
2017-10-19T13:12:45.942Z,62.50
2017-10-19T13:15:15.329Z,62.40
2017-10-19T13:17:44.602Z,63.30
2017-10-19T13:20:14.778Z,63.70
2017-10-19T13:22:44.033Z,63.70
2017-10-19T13:25:14.092Z,64.20
2017-10-19T13:27:43.342Z,64.20
2017-10-19T13:30:12.770Z,64.10
2017-10-19T13:32:42.010Z,65.50
2017-10-19T13:35:11.369Z,64.40
2017-10-19T13:37:40.705Z,64.90
2017-10-19T13:40:10.126Z,64.80
2017-10-19T13:42:39.367Z,65.90
2017-10-19T13:45:08.790Z,65.90
2017-10-19T13:47:38.852Z,67.90
2017-10-19T13:50:08.119Z,67.90
2017-10-19T13:52:37.502Z,67.40
2017-10-19T13:55:07.520Z,66.50
2017-10-19T13:57:36.838Z,66.50
2017-10-19T14:00:06.103Z,65.40
2017-10-19T14:02:35.382Z,66.50
2017-10-19T14:05:04.637Z,65.70
2017-10-19T14:07:34.059Z,65.90
2017-10-19T14:10:03.283Z,66.00
2017-10-19T14:12:32.532Z,66.30
2017-10-19T14:15:02.566Z,67.40
2017-10-19T14:17:31.832Z,67.30
2017-10-19T14:20:01.256Z,68.60
2017-10-19T14:22:31.279Z,68.00
2017-10-19T14:25:00.680Z,68.00
2017-10-19T14:27:30.726Z,73.20
2017-10-19T14:30:00.120Z,73.20
2017-10-19T14:32:29.606Z,74.10
2017-10-19T14:34:59.740Z,76.30
2017-10-19T14:37:29.758Z,76.20
2017-10-19T14:39:59.149Z,76.20
2017-10-19T14:42:29.189Z,78.80
2017-10-19T14:44:59.206Z,79.60
2017-10-19T14:47:29.246Z,81.40
2017-10-19T14:49:58.525Z,81.30
2017-10-19T14:52:27.770Z,83.70
2017-10-19T14:54:57.373Z,83.90
2017-10-19T14:57:26.713Z,85.30
2017-10-19T14:59:55.966Z,85.90
2017-10-19T15:02:25.228Z,87.50
2017-10-19T15:04:54.520Z,89.10
2017-10-19T15:07:23.930Z,90.30
2017-10-19T15:09:53.969Z,91.70
2017-10-19T15:12:23.255Z,91.70
2017-10-19T15:14:52.673Z,92.20
2017-10-19T15:17:21.942Z,92.80
2017-10-19T15:19:51.955Z,93.20
2017-10-19T15:22:22.061Z,93.80
2017-10-19T15:24:51.371Z,93.80
2017-10-19T15:27:20.795Z,93.80
2017-10-19T15:29:50.817Z,94.20
2017-10-19T15:32:20.082Z,94.20
2017-10-19T15:34:49.526Z,94.40
2017-10-19T15:37:19.546Z,94.70
2017-10-19T15:39:49.106Z,94.70
2017-10-19T15:42:18.453Z,95.10
2017-10-19T15:44:48.473Z,95.20
2017-10-19T15:47:17.737Z,95.40
2017-10-19T15:49:46.987Z,95.40
2017-10-19T15:52:16.246Z,95.60
2017-10-19T15:54:45.495Z,95.60
2017-10-19T15:57:14.758Z,95.60
2017-10-19T15:59:44.027Z,95.60
2017-10-19T16:02:13.461Z,96.00
2017-10-19T16:04:43.494Z,96.20
2017-10-19T16:07:12.755Z,96.20
2017-10-19T16:09:42.009Z,96.40
2017-10-19T16:12:11.286Z,96.60
2017-10-19T16:14:41.302Z,96.70
2017-10-19T16:17:10.570Z,96.60
2017-10-19T16:19:40.022Z,97.20
2017-10-19T16:22:10.082Z,97.40
2017-10-19T16:24:39.390Z,97.40
2017-10-19T16:27:08.618Z,97.30
2017-10-19T16:29:37.934Z,97.30
2017-10-19T16:32:08.323Z,97.80
2017-10-19T16:34:37.693Z,97.70
2017-10-19T16:37:07.690Z,98.00
2017-10-19T16:39:37.727Z,97.90
2017-10-19T16:42:06.990Z,97.90
2017-10-19T16:44:36.262Z,98.10
2017-10-19T16:47:05.784Z,98.40
2017-10-19T16:49:35.066Z,98.40
2017-10-19T16:52:04.355Z,98.60
2017-10-19T16:54:33.839Z,98.50
2017-10-19T16:57:03.114Z,98.60
2017-10-19T16:59:32.611Z,98.70
2017-10-19T17:02:01.826Z,99.10
2017-10-19T17:04:31.908Z,99.00
2017-10-19T17:07:01.115Z,99.00
2017-10-19T17:09:30.622Z,98.90
2017-10-19T17:11:59.877Z,98.80
2017-10-19T17:14:29.135Z,98.70
2017-10-19T17:16:58.394Z,98.80
2017-10-19T17:19:27.663Z,98.70
2017-10-19T17:21:56.927Z,98.60
2017-10-19T17:24:26.215Z,98.80
2017-10-19T17:26:55.613Z,98.70
2017-10-19T17:29:24.887Z,98.80
2017-10-19T17:31:54.134Z,98.70
2017-10-19T17:34:23.394Z,98.70
2017-10-19T17:36:52.698Z,98.60
2017-10-19T17:39:22.013Z,98.80
2017-10-19T17:41:51.362Z,98.70
2017-10-19T17:44:20.630Z,98.90
2017-10-19T17:46:49.892Z,98.90
2017-10-19T17:49:19.926Z,98.90
2017-10-19T17:51:49.199Z,99.00
2017-10-19T17:54:18.588Z,99.00
2017-10-19T17:56:48.831Z,98.90
2017-10-19T17:59:18.132Z,98.90
2017-10-19T18:01:47.375Z,99.10
2017-10-19T18:04:16.648Z,99.10
2017-10-19T18:06:45.949Z,99.30
2017-10-19T18:09:15.790Z,99.20
2017-10-19T18:11:45.138Z,99.30
2017-10-19T18:14:15.270Z,99.30
2017-10-19T18:16:45.865Z,99.30
2017-10-19T18:19:15.130Z,99.60
2017-10-19T18:21:44.482Z,99.30
2017-10-19T18:24:14.682Z,99.30
2017-10-19T18:26:44.284Z,99.30
2017-10-19T18:29:13.637Z,99.20
2017-10-19T18:31:43.031Z,99.30
2017-10-19T18:34:13.088Z,99.40
2017-10-19T18:36:42.352Z,99.40
2017-10-19T18:39:11.751Z,99.40
2017-10-19T18:41:41.775Z,99.30
2017-10-19T18:44:12.627Z,99.20
2017-10-19T18:46:41.920Z,99.20
2017-10-19T18:49:11.925Z,99.20
2017-10-19T18:51:41.230Z,99.20
2017-10-19T18:54:10.499Z,99.30
2017-10-19T18:56:39.751Z,99.30
2017-10-19T18:59:09.226Z,99.30
2017-10-19T19:01:38.527Z,99.30
2017-10-19T19:04:07.799Z,99.30
2017-10-19T19:06:37.311Z,99.30
2017-10-19T19:09:06.548Z,99.30
2017-10-19T19:11:35.823Z,99.30
2017-10-19T19:14:05.076Z,99.30
2017-10-19T19:16:34.345Z,99.40
2017-10-19T19:19:04.367Z,99.50
2017-10-19T19:21:33.790Z,99.40
2017-10-19T19:24:03.057Z,99.50
2017-10-19T19:26:33.215Z,99.80
2017-10-19T19:29:02.469Z,99.80
2017-10-19T19:31:31.932Z,99.80
2017-10-19T19:34:01.184Z,99.90
2017-10-19T19:36:30.510Z,99.90
2017-10-19T19:39:00.539Z,99.90
2017-10-19T19:41:29.793Z,99.90
2017-10-19T19:43:59.226Z,99.90
2017-10-19T19:46:28.610Z,99.90
2017-10-19T19:48:58.063Z,99.90
2017-10-19T19:51:27.369Z,99.90
2017-10-19T19:53:56.653Z,99.90
2017-10-19T19:56:26.064Z,99.90
2017-10-19T19:58:55.331Z,99.90
2017-10-19T20:01:24.743Z,99.90
2017-10-19T20:03:54.000Z,99.90
2017-10-19T20:06:23.283Z,99.90
2017-10-19T20:08:52.567Z,99.90
2017-10-19T20:11:21.826Z,99.90
2017-10-19T20:13:51.094Z,99.90
2017-10-19T20:16:20.381Z,99.90
2017-10-19T20:18:50.230Z,99.90
2017-10-19T20:21:19.552Z,99.90
2017-10-19T20:23:48.831Z,99.90
2017-10-19T20:26:18.266Z,99.90
2017-10-19T20:28:48.303Z,99.90
2017-10-19T20:31:17.674Z,99.90
2017-10-19T20:33:47.319Z,99.90
2017-10-19T20:36:16.718Z,99.90
2017-10-19T20:38:46.164Z,99.90
2017-10-19T20:41:15.415Z,99.90
2017-10-19T20:43:44.801Z,99.90
2017-10-19T20:46:14.844Z,99.90
2017-10-19T20:48:44.119Z,99.90
2017-10-19T20:51:13.403Z,99.90
2017-10-19T20:53:42.846Z,99.90
2017-10-19T20:56:12.862Z,99.90
2017-10-19T20:58:42.186Z,99.90
2017-10-19T21:01:11.490Z,99.90
2017-10-19T21:03:40.767Z,99.90
2017-10-19T21:06:10.178Z,99.90
2017-10-19T21:08:39.446Z,99.90
2017-10-19T21:11:08.690Z,99.90
2017-10-19T21:13:37.950Z,99.90
2017-10-19T21:16:07.215Z,99.90
2017-10-19T21:18:36.462Z,99.90
2017-10-19T21:21:05.881Z,99.90
2017-10-19T21:23:35.148Z,99.90
2017-10-19T21:26:04.419Z,99.90
2017-10-19T21:28:33.761Z,99.90
2017-10-19T21:31:03.296Z,99.90
2017-10-19T21:33:34.145Z,99.90
2017-10-19T21:36:03.418Z,99.90
2017-10-19T21:38:33.531Z,99.90
2017-10-19T21:41:03.648Z,99.90
2017-10-19T21:43:33.160Z,99.90
2017-10-19T21:46:02.471Z,99.90
2017-10-19T21:48:32.581Z,99.90
2017-10-19T21:51:02.623Z,99.90
2017-10-19T21:53:31.887Z,99.90
2017-10-19T21:56:01.318Z,99.90
2017-10-19T21:58:31.369Z,99.90
2017-10-19T22:01:00.716Z,99.90
2017-10-19T22:03:29.996Z,99.90
2017-10-19T22:05:59.263Z,99.90
2017-10-19T22:08:28.502Z,99.90
2017-10-19T22:10:59.296Z,99.90
2017-10-19T22:13:28.549Z,99.90
2017-10-19T22:15:57.814Z,99.90
2017-10-19T22:18:27.271Z,99.90
2017-10-19T22:20:56.552Z,99.90
2017-10-19T22:23:25.773Z,99.90
2017-10-19T22:25:55.939Z,99.90
2017-10-19T22:28:25.299Z,99.90
2017-10-19T22:30:55.346Z,99.90
2017-10-19T22:33:24.718Z,99.90
2017-10-19T22:35:54.798Z,99.90
2017-10-19T22:38:24.021Z,99.90
2017-10-19T22:40:53.307Z,99.90
2017-10-19T22:43:22.619Z,99.90
2017-10-19T22:45:51.858Z,99.90
2017-10-19T22:48:21.882Z,99.90
2017-10-19T22:50:51.257Z,99.90
2017-10-19T22:53:22.202Z,99.90
2017-10-19T22:55:52.266Z,99.90
2017-10-19T22:58:22.161Z,99.90
2017-10-19T23:00:51.415Z,99.90
2017-10-19T23:03:20.667Z,99.90
2017-10-19T23:05:50.156Z,99.90
2017-10-19T23:08:20.254Z,99.90
2017-10-19T23:10:49.535Z,99.90
2017-10-19T23:13:18.998Z,99.90
2017-10-19T23:15:48.243Z,99.90
2017-10-19T23:18:17.766Z,99.90
2017-10-19T23:20:47.061Z,99.90
2017-10-19T23:23:17.219Z,99.90
2017-10-19T23:25:46.463Z,99.90
2017-10-19T23:28:15.722Z,99.90
2017-10-19T23:30:45.023Z,99.90
2017-10-19T23:33:14.294Z,99.90
2017-10-19T23:35:43.791Z,99.90
2017-10-19T23:38:13.077Z,99.90
2017-10-19T23:40:42.313Z,99.90
2017-10-19T23:43:11.611Z,99.90
2017-10-19T23:45:41.018Z,99.90
2017-10-19T23:48:11.030Z,99.90
2017-10-19T23:50:40.305Z,99.90
2017-10-19T23:53:09.946Z,99.90
2017-10-19T23:55:39.990Z,99.90
2017-10-19T23:58:09.235Z,99.90
